< < Back
Terminal Aerodrome Forecast


Current Version              Previous Versions:   1  2  3  4  5  6  7  8  9  

Terminal Aerodrome Forecast

858
FTUS42 KFFC 252300
TAFPDK
TAF
KPDK 252333Z 2600/2624 31005KT P6SM FEW040
     FM260300 31003KT P6SM SCT025
     FM261300 32007KT P6SM FEW250
     FM262300 00000KT P6SM SKC=



Latest METAR

299
SAUS70 KWBC 252300 RRB
MTRPDK
METAR KPDK 252253Z AUTO 30006KT 10SM CLR 20/07 A3002 RMK AO2 SLP165
T02000072 TSNO


USA.gov is the U.S. government's official web portal to all federal, state and local government web resources and services.